Time;durP1;ratioP1;P1;durP2;ratioP2;P2;SDS_P1;SDS_P2;PMS_P1;PMS_P2;Temp;Humidity;BMP_temperature;BMP_pressure;BME280_temperature;BME280_humidity;BME280_pressure;Samples;Min_cycle;Max_cycle;Signal;HPM_P1;HPM_P2
2024/02/07 00:00:13;;;;;;;8.38;3.90;;;;;;;;;;5042206;28;20021;-72
2024/02/07 00:02:39;;;;;;;7.13;4.45;;;;;;;;;;5038516;28;20032;-72
2024/02/07 00:05:05;;;;;;;10.27;3.80;;;;;;;;;;5036888;28;20032;-72
2024/02/07 00:07:32;;;;;;;10.75;4.35;;;;;;;;;;5045483;28;20064;-71
2024/02/07 00:09:58;;;;;;;8.45;4.93;;;;;;;;;;5032527;28;20431;-73
2024/02/07 00:12:24;;;;;;;18.58;4.93;;;;;;;;;;5047254;28;20582;-73
2024/02/07 00:14:50;;;;;;;6.43;4.00;;;;;;;;;;5034701;28;20027;-73
2024/02/07 00:17:17;;;;;;;6.45;4.30;;;;;;;;;;5035864;28;20029;-72
2024/02/07 00:19:43;;;;;;;5.22;4.25;;;;;;;;;;5042466;28;20020;-72
2024/02/07 00:22:10;;;;;;;14.27;4.00;;;;;;;;;;5036646;28;20048;-71
2024/02/07 00:24:36;;;;;;;13.18;5.22;;;;;;;;;;5041302;28;20036;-72
2024/02/07 00:27:02;;;;;;;9.48;5.25;;;;;;;;;;5048728;28;20025;-71
2024/02/07 00:29:29;;;;;;;17.90;4.88;;;;;;;;;;5048376;28;20013;-72
2024/02/07 00:31:55;;;;;;;8.70;4.20;;;;;;;;;;5047547;28;20055;-72
2024/02/07 00:34:25;;;;;;;10.32;5.15;;;;;;;;;;5043844;28;20057;-72
2024/02/07 00:36:52;;;;;;;15.07;4.55;;;;;;;;;;5026667;28;20032;-72
2024/02/07 00:39:18;;;;;;;9.10;4.60;;;;;;;;;;5024046;28;20025;-72
2024/02/07 00:41:44;;;;;;;7.65;4.20;;;;;;;;;;5047989;28;20025;-72
2024/02/07 00:44:10;;;;;;;16.23;5.22;;;;;;;;;;5036210;28;20581;-72
2024/02/07 00:46:38;;;;;;;9.52;4.97;;;;;;;;;;5027784;28;20155;-72
2024/02/07 00:49:04;;;;;;;10.30;4.40;;;;;;;;;;5030176;28;20059;-72
2024/02/07 00:51:30;;;;;;;9.38;5.32;;;;;;;;;;5029298;28;20037;-72
2024/02/07 00:53:57;;;;;;;8.27;5.07;;;;;;;;;;5041393;28;20029;-72
2024/02/07 00:56:24;;;;;;;10.07;4.30;;;;;;;;;;5047233;28;20074;-72
2024/02/07 00:58:51;;;;;;;5.40;4.18;;;;;;;;;;5039177;28;20048;-71
2024/02/07 01:01:19;;;;;;;14.40;4.85;;;;;;;;;;5030385;28;20389;-72
2024/02/07 01:03:46;;;;;;;7.90;4.18;;;;;;;;;;5027805;28;20021;-72
2024/02/07 01:06:12;;;;;;;8.43;4.55;;;;;;;;;;5031131;28;20036;-72
2024/02/07 01:08:38;;;;;;;7.28;4.20;;;;;;;;;;5041928;28;20037;-71
2024/02/07 01:11:05;;;;;;;6.00;3.70;;;;;;;;;;5044652;28;20025;-72
2024/02/07 01:13:31;;;;;;;12.15;4.25;;;;;;;;;;5048638;28;20027;-72
2024/02/07 01:15:57;;;;;;;8.15;4.78;;;;;;;;;;5037995;28;20026;-72
2024/02/07 01:18:23;;;;;;;14.45;4.13;;;;;;;;;;5048461;28;20079;-72
2024/02/07 01:20:50;;;;;;;14.20;4.65;;;;;;;;;;5026448;28;20026;-72
2024/02/07 01:23:16;;;;;;;7.45;3.92;;;;;;;;;;5029222;28;20021;-71
2024/02/07 01:25:45;;;;;;;7.47;4.15;;;;;;;;;;5024801;28;20025;-72
2024/02/07 01:28:12;;;;;;;7.18;4.38;;;;;;;;;;5048563;28;20051;-72
2024/02/07 01:30:38;;;;;;;8.93;3.70;;;;;;;;;;5032522;28;20056;-72
2024/02/07 01:33:06;;;;;;;6.57;3.72;;;;;;;;;;5047721;28;20021;-72
2024/02/07 01:35:32;;;;;;;6.93;4.30;;;;;;;;;;5058675;28;20409;-72
2024/02/07 01:38:07;;;;;;;11.48;4.68;;;;;;;;;;5030763;28;20120;-72
2024/02/07 01:40:45;;;;;;;9.50;4.43;;;;;;;;;;5048772;28;20028;-71
2024/02/07 01:43:12;;;;;;;6.35;3.60;;;;;;;;;;5062885;28;20024;-72
2024/02/07 01:45:39;;;;;;;9.27;4.28;;;;;;;;;;5050148;28;20036;-71
2024/02/07 01:48:06;;;;;;;11.18;4.07;;;;;;;;;;5059047;28;20021;-72
2024/02/07 01:50:33;;;;;;;6.28;4.30;;;;;;;;;;5040893;28;20033;-74
2024/02/07 01:53:02;;;;;;;5.43;3.20;;;;;;;;;;5057106;28;20059;-71
2024/02/07 01:55:29;;;;;;;7.28;3.78;;;;;;;;;;5047106;28;20022;-72
2024/02/07 01:58:00;;;;;;;9.30;4.68;;;;;;;;;;5034916;28;20056;-73
2024/02/07 02:00:26;;;;;;;11.60;4.85;;;;;;;;;;5061471;28;20032;-72
2024/02/07 02:02:53;;;;;;;5.57;4.03;;;;;;;;;;5055616;28;20016;-72
2024/02/07 02:05:20;;;;;;;20.25;4.15;;;;;;;;;;5049380;28;20078;-71
2024/02/07 02:07:48;;;;;;;6.30;3.38;;;;;;;;;;5042366;28;20551;-71
2024/02/07 02:10:15;;;;;;;4.88;3.38;;;;;;;;;;5048238;28;20036;-72
2024/02/07 02:12:42;;;;;;;6.50;3.72;;;;;;;;;;5041405;28;20671;-72
2024/02/07 02:15:09;;;;;;;10.25;4.35;;;;;;;;;;5029214;28;20021;-72
2024/02/07 02:17:36;;;;;;;4.80;4.30;;;;;;;;;;5016795;28;20473;-72
2024/02/07 02:20:05;;;;;;;6.55;3.85;;;;;;;;;;5054547;28;20017;-71
2024/02/07 02:22:31;;;;;;;21.73;4.68;;;;;;;;;;5052818;28;20104;-71
2024/02/07 02:25:12;;;;;;;13.70;4.22;;;;;;;;;;5029459;28;20039;-73
2024/02/07 02:27:39;;;;;;;12.40;4.53;;;;;;;;;;5033614;28;20312;-72
2024/02/07 02:30:20;;;;;;;14.18;4.05;;;;;;;;;;5045681;28;20020;-71
2024/02/07 02:32:48;;;;;;;8.10;4.70;;;;;;;;;;5052075;28;20079;-72
2024/02/07 02:35:16;;;;;;;5.50;4.35;;;;;;;;;;5023320;28;20033;-72
2024/02/07 02:37:42;;;;;;;9.48;4.13;;;;;;;;;;5042512;28;20374;-71
2024/02/07 02:40:09;;;;;;;4.57;3.92;;;;;;;;;;5040495;28;20612;-72
2024/02/07 02:42:35;;;;;;;8.20;3.13;;;;;;;;;;5023428;28;20021;-71
2024/02/07 02:45:01;;;;;;;10.68;4.82;;;;;;;;;;5031477;28;20386;-72
2024/02/07 02:47:28;;;;;;;8.18;5.40;;;;;;;;;;5048323;28;20047;-72
2024/02/07 02:49:55;;;;;;;4.35;3.95;;;;;;;;;;5035384;28;20031;-72
2024/02/07 02:52:24;;;;;;;12.23;4.00;;;;;;;;;;5061784;28;20017;-72
2024/02/07 02:54:50;;;;;;;13.75;4.53;;;;;;;;;;5049994;28;20496;-71
2024/02/07 02:57:17;;;;;;;5.63;3.60;;;;;;;;;;5038219;28;20409;-72
2024/02/07 02:59:44;;;;;;;10.57;4.03;;;;;;;;;;5046629;28;20028;-72
2024/02/07 03:02:10;;;;;;;6.80;4.05;;;;;;;;;;5044508;28;20039;-68
2024/02/07 03:04:43;;;;;;;10.60;3.88;;;;;;;;;;5046082;28;20436;-68
2024/02/07 03:09:54;;;;;;;6.75;3.90;;;;;;;;;;5046719;28;20048;-67
2024/02/07 03:12:20;;;;;;;10.10;4.05;;;;;;;;;;5023201;28;20575;-68
2024/02/07 03:14:52;;;;;;;6.65;4.20;;;;;;;;;;5044998;28;20311;-68
2024/02/07 03:17:21;;;;;;;13.10;3.63;;;;;;;;;;5048062;28;20033;-68
2024/02/07 03:19:47;;;;;;;7.20;4.38;;;;;;;;;;5024756;28;20025;-68
2024/02/07 03:22:13;;;;;;;5.97;3.83;;;;;;;;;;5034454;28;20555;-68
2024/02/07 03:24:42;;;;;;;7.85;4.50;;;;;;;;;;5035157;28;20121;-68
2024/02/07 03:27:11;;;;;;;11.10;4.30;;;;;;;;;;5043190;28;20029;-68
2024/02/07 03:29:37;;;;;;;8.73;3.92;;;;;;;;;;5023837;28;20033;-69
2024/02/07 03:32:03;;;;;;;6.68;4.45;;;;;;;;;;5026805;28;20112;-69
2024/02/07 03:34:33;;;;;;;5.50;3.88;;;;;;;;;;5052864;28;20051;-68
2024/02/07 03:37:00;;;;;;;7.32;3.47;;;;;;;;;;5039935;28;20025;-68
2024/02/07 03:39:27;;;;;;;15.15;4.70;;;;;;;;;;5030770;28;20025;-68
2024/02/07 03:41:56;;;;;;;7.90;4.10;;;;;;;;;;5017701;28;20032;-67
2024/02/07 03:44:23;;;;;;;8.23;4.10;;;;;;;;;;5021157;28;20036;-68
2024/02/07 03:46:50;;;;;;;4.95;3.95;;;;;;;;;;5031747;28;20058;-68
2024/02/07 03:49:17;;;;;;;10.73;3.78;;;;;;;;;;5027922;28;20669;-68
2024/02/07 03:51:43;;;;;;;10.30;3.10;;;;;;;;;;5040681;28;20488;-69
2024/02/07 03:54:10;;;;;;;7.97;4.50;;;;;;;;;;5040934;28;20029;-68
2024/02/07 03:56:36;;;;;;;5.75;3.83;;;;;;;;;;5048099;28;20036;-68
2024/02/07 03:59:03;;;;;;;9.23;4.43;;;;;;;;;;5038180;28;20022;-67
2024/02/07 04:01:32;;;;;;;8.68;4.22;;;;;;;;;;5030187;28;20034;-68
2024/02/07 04:03:58;;;;;;;5.07;3.63;;;;;;;;;;5049521;28;20029;-68
2024/02/07 04:06:24;;;;;;;11.23;4.30;;;;;;;;;;5028776;28;20384;-73
2024/02/07 04:08:51;;;;;;;6.88;3.67;;;;;;;;;;5049398;28;20064;-68
2024/02/07 05:16:40;;;;;;;10.38;3.85;;;;;;;;;;5044941;28;20075;-72
2024/02/07 05:19:07;;;;;;;4.55;3.47;;;;;;;;;;5037718;28;20028;-70
2024/02/07 05:21:38;;;;;;;4.47;3.70;;;;;;;;;;5043761;28;20030;-72
2024/02/07 05:24:10;;;;;;;5.35;3.28;;;;;;;;;;5029470;28;20028;-71
2024/02/07 05:26:37;;;;;;;11.57;4.05;;;;;;;;;;5045841;28;20037;-71
2024/02/07 05:29:16;;;;;;;7.68;4.57;;;;;;;;;;5042138;28;20431;-71
2024/02/07 05:31:49;;;;;;;11.98;4.28;;;;;;;;;;5020568;28;20032;-71
2024/02/07 05:34:15;;;;;;;9.40;4.07;;;;;;;;;;5049172;28;20132;-72
2024/02/07 05:36:42;;;;;;;5.50;3.53;;;;;;;;;;5046968;28;20055;-71
2024/02/07 05:39:08;;;;;;;6.07;4.10;;;;;;;;;;5048295;28;20024;-72
2024/02/07 05:41:37;;;;;;;9.50;4.82;;;;;;;;;;5042124;28;20040;-71
2024/02/07 05:44:03;;;;;;;5.80;3.72;;;;;;;;;;5052280;28;20048;-72
2024/02/07 05:46:30;;;;;;;10.40;4.72;;;;;;;;;;5049351;28;20099;-72
2024/02/07 05:48:56;;;;;;;10.05;4.75;;;;;;;;;;5026628;28;20037;-71
2024/02/07 05:51:24;;;;;;;20.45;4.35;;;;;;;;;;5050872;28;20642;-72
2024/02/07 05:53:51;;;;;;;10.40;4.53;;;;;;;;;;5047198;28;20025;-71
2024/02/07 05:56:19;;;;;;;3.63;3.30;;;;;;;;;;5040628;28;20057;-72
2024/02/07 05:58:47;;;;;;;9.00;3.88;;;;;;;;;;5022306;28;20032;-72
2024/02/07 06:01:15;;;;;;;6.65;3.15;;;;;;;;;;5043776;28;20025;-73
2024/02/07 06:03:50;;;;;;;5.70;3.78;;;;;;;;;;5032163;28;20025;-68
2024/02/07 06:06:16;;;;;;;7.50;4.00;;;;;;;;;;5035820;28;20143;-69
2024/02/07 06:08:45;;;;;;;4.95;3.33;;;;;;;;;;5040673;28;20041;-69
2024/02/07 06:11:12;;;;;;;4.05;3.28;;;;;;;;;;5039096;28;20428;-70
2024/02/07 06:13:39;;;;;;;8.77;5.80;;;;;;;;;;5024997;28;20113;-69
2024/02/07 06:16:05;;;;;;;5.82;3.55;;;;;;;;;;5049059;28;20020;-69
2024/02/07 06:18:31;;;;;;;17.00;5.38;;;;;;;;;;5028437;28;20400;-68
2024/02/07 06:20:57;;;;;;;6.22;3.85;;;;;;;;;;5044210;28;20049;-69
2024/02/07 06:23:23;;;;;;;6.05;4.18;;;;;;;;;;5035145;28;20412;-69
2024/02/07 06:25:50;;;;;;;5.25;4.05;;;;;;;;;;5046490;28;20152;-69
2024/02/07 06:28:16;;;;;;;7.00;3.88;;;;;;;;;;5027886;28;20034;-69
2024/02/07 06:30:44;;;;;;;8.98;4.32;;;;;;;;;;5051459;28;20025;-69
2024/02/07 06:33:11;;;;;;;4.55;3.60;;;;;;;;;;5047783;28;20033;-69
2024/02/07 06:35:37;;;;;;;6.53;3.88;;;;;;;;;;5049500;28;20032;-69
2024/02/07 06:38:03;;;;;;;10.75;4.25;;;;;;;;;;5037150;28;20724;-68
2024/02/07 06:40:30;;;;;;;9.88;4.80;;;;;;;;;;5053032;28;20021;-69
2024/02/07 06:42:56;;;;;;;6.97;4.72;;;;;;;;;;5046012;28;20054;-69
2024/02/07 06:45:23;;;;;;;6.20;4.60;;;;;;;;;;5036721;28;20168;-69
2024/02/07 06:47:49;;;;;;;6.35;3.92;;;;;;;;;;5049232;28;20029;-68
2024/02/07 06:50:22;;;;;;;9.05;3.85;;;;;;;;;;5015052;28;20040;-69
2024/02/07 06:52:48;;;;;;;6.97;4.05;;;;;;;;;;5029555;28;20041;-69
2024/02/07 06:55:14;;;;;;;7.05;4.53;;;;;;;;;;5047286;28;20028;-69
2024/02/07 06:57:40;;;;;;;17.05;4.45;;;;;;;;;;5031609;28;20031;-69
2024/02/07 07:00:07;;;;;;;5.22;3.95;;;;;;;;;;5038835;28;20488;-72
2024/02/07 07:02:33;;;;;;;13.55;5.00;;;;;;;;;;5020814;28;20106;-73
2024/02/07 07:05:01;;;;;;;9.90;4.05;;;;;;;;;;5054873;28;20281;-72
2024/02/07 07:07:27;;;;;;;9.20;5.22;;;;;;;;;;5035594;28;20057;-72
2024/02/07 07:09:53;;;;;;;11.40;4.93;;;;;;;;;;5035924;28;20043;-73
2024/02/07 07:12:20;;;;;;;5.90;4.30;;;;;;;;;;5054617;28;20548;-73
2024/02/07 07:14:46;;;;;;;8.55;4.55;;;;;;;;;;5039444;28;20112;-72
2024/02/07 07:17:12;;;;;;;17.27;4.63;;;;;;;;;;5043548;28;20041;-72
2024/02/07 07:19:39;;;;;;;3.85;3.50;;;;;;;;;;5041279;28;20034;-72
2024/02/07 07:22:05;;;;;;;9.13;4.90;;;;;;;;;;5037235;28;20042;-72
2024/02/07 07:24:31;;;;;;;7.60;4.85;;;;;;;;;;5051616;28;20025;-72
2024/02/07 07:26:58;;;;;;;8.05;5.15;;;;;;;;;;5033393;28;20092;-72
2024/02/07 07:29:24;;;;;;;7.85;5.30;;;;;;;;;;5028169;28;20014;-73
2024/02/07 07:31:51;;;;;;;10.73;4.60;;;;;;;;;;5030860;28;20032;-73
2024/02/07 07:34:17;;;;;;;5.53;4.13;;;;;;;;;;5035714;28;20254;-73
2024/02/07 07:36:43;;;;;;;8.45;4.93;;;;;;;;;;5024230;28;20032;-72
2024/02/07 07:39:10;;;;;;;16.45;4.80;;;;;;;;;;5043904;28;20025;-72
2024/02/07 07:41:39;;;;;;;11.15;4.22;;;;;;;;;;5049058;28;20108;-72
2024/02/07 07:44:06;;;;;;;10.50;4.82;;;;;;;;;;5045890;28;20163;-72
2024/02/07 07:46:32;;;;;;;6.35;4.20;;;;;;;;;;5041788;28;20469;-72
2024/02/07 07:48:58;;;;;;;9.27;4.32;;;;;;;;;;5030081;28;20481;-73
2024/02/07 07:51:26;;;;;;;17.10;4.78;;;;;;;;;;5023930;28;20034;-68
2024/02/07 07:53:52;;;;;;;5.70;3.60;;;;;;;;;;5034256;28;20501;-68
2024/02/07 07:56:20;;;;;;;10.70;4.03;;;;;;;;;;5026484;28;20092;-71
2024/02/07 07:58:49;;;;;;;8.50;4.82;;;;;;;;;;5025160;28;20044;-69
2024/02/07 08:01:16;;;;;;;8.68;4.10;;;;;;;;;;5040095;28;20112;-72
2024/02/07 08:03:42;;;;;;;8.35;4.85;;;;;;;;;;5037442;28;20395;-72
2024/02/07 08:06:09;;;;;;;6.68;4.38;;;;;;;;;;5035252;28;20576;-72
2024/02/07 08:08:35;;;;;;;11.63;3.97;;;;;;;;;;5026612;28;20056;-72
2024/02/07 08:11:02;;;;;;;5.43;4.15;;;;;;;;;;5044673;28;20099;-72
2024/02/07 08:13:28;;;;;;;5.38;3.67;;;;;;;;;;5042247;28;20060;-73
2024/02/07 08:15:55;;;;;;;6.85;4.25;;;;;;;;;;5025234;28;20037;-72
2024/02/07 08:18:21;;;;;;;9.25;4.53;;;;;;;;;;5042287;28;20028;-73
2024/02/07 08:20:47;;;;;;;5.72;4.20;;;;;;;;;;5041171;28;20538;-73
2024/02/07 08:23:13;;;;;;;7.03;4.20;;;;;;;;;;5043640;28;20025;-73
2024/02/07 08:25:42;;;;;;;9.25;5.07;;;;;;;;;;5039330;28;20075;-73
2024/02/07 08:28:08;;;;;;;10.70;3.95;;;;;;;;;;5040131;28;20499;-74
2024/02/07 08:30:34;;;;;;;8.63;4.15;;;;;;;;;;5047200;28;20131;-72
2024/02/07 08:33:01;;;;;;;4.22;3.42;;;;;;;;;;5038714;28;20131;-73
2024/02/07 08:35:27;;;;;;;7.25;4.55;;;;;;;;;;5045940;28;20022;-71
2024/02/07 08:37:58;;;;;;;4.55;3.42;;;;;;;;;;5020790;28;20569;-72
2024/02/07 08:40:26;;;;;;;6.15;3.72;;;;;;;;;;5043084;28;20468;-72
2024/02/07 08:42:52;;;;;;;9.63;4.68;;;;;;;;;;5040105;28;20023;-73
2024/02/07 08:45:20;;;;;;;9.32;4.13;;;;;;;;;;5038884;28;20036;-73
2024/02/07 08:47:47;;;;;;;9.35;5.18;;;;;;;;;;5041486;28;20120;-73
2024/02/07 08:50:17;;;;;;;5.15;4.10;;;;;;;;;;5035075;28;20026;-73
2024/02/07 08:52:44;;;;;;;7.35;4.00;;;;;;;;;;5038496;28;20532;-72
2024/02/07 08:55:11;;;;;;;4.57;3.92;;;;;;;;;;5032548;28;20611;-72
2024/02/07 08:57:37;;;;;;;8.00;4.43;;;;;;;;;;5036436;28;20036;-72
2024/02/07 09:00:04;;;;;;;6.03;5.38;;;;;;;;;;5030582;28;20415;-72
2024/02/07 09:02:30;;;;;;;10.00;4.55;;;;;;;;;;5041118;28;20039;-73
2024/02/07 09:05:03;;;;;;;10.50;5.50;;;;;;;;;;5030906;28;20459;-73
2024/02/07 09:07:29;;;;;;;12.60;4.25;;;;;;;;;;5023534;28;20810;-71
2024/02/07 09:12:50;;;;;;;7.35;4.53;;;;;;;;;;5060443;22;20056;-71
2024/02/07 09:15:16;;;;;;;7.47;5.40;;;;;;;;;;5052105;28;20285;-72
2024/02/07 09:17:43;;;;;;;12.88;5.78;;;;;;;;;;5076735;28;20125;-71
2024/02/07 09:20:09;;;;;;;7.82;5.47;;;;;;;;;;5072410;28;20020;-70
2024/02/07 09:22:35;;;;;;;8.00;4.45;;;;;;;;;;5075496;28;20354;-72
2024/02/07 09:25:01;;;;;;;7.30;4.38;;;;;;;;;;5073320;28;20020;-68
2024/02/07 09:30:01;;;;;;;9.52;4.65;;;;;;;;;;5001509;28;20033;-69
2024/02/07 09:32:32;;;;;;;5.68;4.22;;;;;;;;;;5037085;28;20032;-70
2024/02/07 09:34:58;;;;;;;12.10;4.10;;;;;;;;;;5031862;28;20029;-69
2024/02/07 09:37:24;;;;;;;5.38;3.90;;;;;;;;;;5037110;28;20082;-67
2024/02/07 09:39:50;;;;;;;11.48;5.80;;;;;;;;;;5043144;28;20025;-70
2024/02/07 09:42:19;;;;;;;8.38;5.22;;;;;;;;;;5043088;28;20029;-69
2024/02/07 09:44:50;;;;;;;12.48;4.90;;;;;;;;;;5044015;28;20044;-69
2024/02/07 09:47:16;;;;;;;7.97;5.18;;;;;;;;;;5023684;28;20979;-67
2024/02/07 09:49:43;;;;;;;5.72;4.22;;;;;;;;;;5025293;28;20399;-67
2024/02/07 09:52:10;;;;;;;7.35;5.25;;;;;;;;;;5025045;28;20039;-64
2024/02/07 09:54:37;;;;;;;4.65;4.18;;;;;;;;;;5028816;28;20510;-66
2024/02/07 09:57:03;;;;;;;5.50;3.53;;;;;;;;;;5041238;28;20082;-69
2024/02/07 09:59:30;;;;;;;7.35;4.63;;;;;;;;;;5042057;28;20040;-72
2024/02/07 10:01:56;;;;;;;7.00;4.38;;;;;;;;;;5040630;28;20033;-71
2024/02/07 10:04:26;;;;;;;5.90;5.28;;;;;;;;;;5044500;28;20021;-66
2024/02/07 10:06:54;;;;;;;6.15;3.58;;;;;;;;;;5043099;28;20040;-73
2024/02/07 10:09:21;;;;;;;7.60;4.78;;;;;;;;;;5041159;28;20079;-69
2024/02/07 10:11:48;;;;;;;5.50;3.88;;;;;;;;;;5026972;28;20026;-69
2024/02/07 10:14:14;;;;;;;10.10;4.30;;;;;;;;;;5042177;28;20500;-69
2024/02/07 10:16:40;;;;;;;4.97;3.33;;;;;;;;;;5044773;28;20021;-68
2024/02/07 10:19:06;;;;;;;4.28;3.35;;;;;;;;;;5025671;28;20484;-71
2024/02/07 10:21:36;;;;;;;7.95;4.22;;;;;;;;;;5041830;28;20021;-71
2024/02/07 10:24:05;;;;;;;10.35;4.65;;;;;;;;;;5042873;28;20025;-69
2024/02/07 10:26:32;;;;;;;11.77;4.90;;;;;;;;;;5027471;28;20124;-65
2024/02/07 10:29:02;;;;;;;5.90;3.35;;;;;;;;;;5037172;28;20053;-67
2024/02/07 10:31:28;;;;;;;11.18;3.75;;;;;;;;;;5040580;28;20017;-66
2024/02/07 10:33:57;;;;;;;6.72;3.60;;;;;;;;;;5025782;28;20075;-67
2024/02/07 10:36:24;;;;;;;4.72;3.35;;;;;;;;;;5040714;28;20036;-66
2024/02/07 10:38:52;;;;;;;5.10;4.00;;;;;;;;;;5040732;28;20027;-67
2024/02/07 10:41:18;;;;;;;9.63;4.38;;;;;;;;;;5024601;28;20033;-66
2024/02/07 10:43:44;;;;;;;9.32;3.20;;;;;;;;;;5040984;28;20083;-66
2024/02/07 10:46:13;;;;;;;7.50;3.10;;;;;;;;;;5040971;28;20460;-69
2024/02/07 10:48:40;;;;;;;6.95;3.25;;;;;;;;;;5038927;28;20037;-67
2024/02/07 10:51:07;;;;;;;4.50;3.05;;;;;;;;;;5041130;28;20033;-66
2024/02/07 10:53:33;;;;;;;8.63;3.22;;;;;;;;;;5040782;28;20040;-74
2024/02/07 10:56:00;;;;;;;10.75;3.65;;;;;;;;;;5049873;28;20152;-72
2024/02/07 10:58:28;;;;;;;7.00;3.30;;;;;;;;;;5046652;28;20052;-72
2024/02/07 11:00:58;;;;;;;5.57;3.58;;;;;;;;;;5029737;28;20480;-68
2024/02/07 11:03:30;;;;;;;8.57;2.90;;;;;;;;;;5028956;28;20021;-71
2024/02/07 11:05:57;;;;;;;9.23;3.35;;;;;;;;;;5044391;28;20021;-72
2024/02/07 11:08:25;;;;;;;7.68;3.22;;;;;;;;;;5025117;28;20045;-65
2024/02/07 11:10:56;;;;;;;5.38;3.42;;;;;;;;;;5042349;28;20484;-68
2024/02/07 11:13:23;;;;;;;10.02;3.05;;;;;;;;;;5041337;28;20026;-66
2024/02/07 11:15:49;;;;;;;6.43;2.67;;;;;;;;;;5042033;28;20381;-66
2024/02/07 11:18:15;;;;;;;7.22;3.08;;;;;;;;;;5040987;28;20211;-68
2024/02/07 11:20:44;;;;;;;8.02;2.70;;;;;;;;;;5026089;28;20025;-66
2024/02/07 11:23:17;;;;;;;3.25;2.63;;;;;;;;;;5027000;28;20033;-67
2024/02/07 11:25:44;;;;;;;5.68;3.08;;;;;;;;;;5045409;28;20031;-66
2024/02/07 11:28:10;;;;;;;4.78;3.03;;;;;;;;;;5022834;28;20686;-67
2024/02/07 11:30:37;;;;;;;2.97;2.67;;;;;;;;;;5042270;28;20057;-68
2024/02/07 11:33:03;;;;;;;13.30;2.97;;;;;;;;;;5036806;28;20020;-67
2024/02/07 11:35:33;;;;;;;5.25;3.17;;;;;;;;;;5039095;28;20036;-67
2024/02/07 11:38:02;;;;;;;3.15;2.50;;;;;;;;;;5039578;28;20025;-66
2024/02/07 11:40:36;;;;;;;5.93;2.90;;;;;;;;;;5020179;28;20040;-66
2024/02/07 11:43:03;;;;;;;7.43;3.00;;;;;;;;;;5040077;28;20029;-71
2024/02/07 11:45:29;;;;;;;8.43;3.85;;;;;;;;;;5040134;28;20033;-68
2024/02/07 11:47:56;;;;;;;7.32;3.20;;;;;;;;;;5024290;28;20423;-67
2024/02/07 11:50:22;;;;;;;6.95;4.13;;;;;;;;;;5025650;28;20163;-67
2024/02/07 11:52:52;;;;;;;11.55;3.47;;;;;;;;;;5047526;28;20021;-65
2024/02/07 11:55:18;;;;;;;9.73;3.00;;;;;;;;;;5039995;28;20095;-68
2024/02/07 11:57:46;;;;;;;7.70;2.67;;;;;;;;;;5034957;28;20036;-63
2024/02/07 12:00:13;;;;;;;8.40;3.08;;;;;;;;;;5038868;28;20164;-63
2024/02/07 12:02:39;;;;;;;4.00;3.15;;;;;;;;;;5034686;28;20637;-63
2024/02/07 12:05:06;;;;;;;5.35;2.90;;;;;;;;;;5024986;28;20035;-63
2024/02/07 12:07:35;;;;;;;9.88;3.50;;;;;;;;;;5023538;28;20048;-63
2024/02/07 12:10:01;;;;;;;7.75;3.45;;;;;;;;;;5040945;28;20033;-63
2024/02/07 12:12:28;;;;;;;6.38;2.92;;;;;;;;;;5036826;28;20033;-66
2024/02/07 12:14:54;;;;;;;6.20;3.05;;;;;;;;;;5022312;28;20036;-66
2024/02/07 12:17:20;;;;;;;9.55;2.85;;;;;;;;;;5022959;28;20503;-64
2024/02/07 12:19:47;;;;;;;5.22;2.75;;;;;;;;;;5038550;28;20074;-64
2024/02/07 12:22:17;;;;;;;11.10;3.70;;;;;;;;;;5042088;28;20028;-64
2024/02/07 12:24:44;;;;;;;3.30;2.85;;;;;;;;;;5038193;28;20029;-64
2024/02/07 12:27:13;;;;;;;9.18;2.83;;;;;;;;;;5043152;28;20070;-67
2024/02/07 12:29:59;;;;;;;8.25;2.83;;;;;;;;;;5039167;28;20443;-64
2024/02/07 12:32:26;;;;;;;3.85;2.30;;;;;;;;;;5039333;28;20055;-65
2024/02/07 12:34:54;;;;;;;10.35;2.40;;;;;;;;;;5022222;28;20025;-65
2024/02/07 12:37:21;;;;;;;3.88;2.25;;;;;;;;;;5038878;28;20017;-64
2024/02/07 12:39:48;;;;;;;3.05;2.63;;;;;;;;;;5031397;28;20369;-66
2024/02/07 12:42:15;;;;;;;6.63;2.70;;;;;;;;;;5043585;28;20025;-63
2024/02/07 12:44:41;;;;;;;13.70;2.72;;;;;;;;;;5038885;28;20686;-64
2024/02/07 12:47:11;;;;;;;7.72;2.25;;;;;;;;;;5039794;28;20396;-64
2024/02/07 12:49:37;;;;;;;4.63;2.30;;;;;;;;;;5042148;28;20507;-63
2024/02/07 12:52:04;;;;;;;3.33;2.22;;;;;;;;;;5037437;28;20029;-64
2024/02/07 12:54:30;;;;;;;7.10;2.55;;;;;;;;;;5022377;28;20399;-65
2024/02/07 12:56:56;;;;;;;3.25;2.50;;;;;;;;;;5021615;28;20980;-64
2024/02/07 12:59:29;;;;;;;6.32;2.30;;;;;;;;;;5040104;28;20024;-64
2024/02/07 13:01:56;;;;;;;7.00;2.83;;;;;;;;;;5041463;28;20496;-64
2024/02/07 13:04:23;;;;;;;3.42;2.28;;;;;;;;;;5040009;28;20090;-63
2024/02/07 13:06:49;;;;;;;6.15;3.13;;;;;;;;;;5038612;28;20060;-64
2024/02/07 13:09:15;;;;;;;6.63;3.28;;;;;;;;;;5033312;28;20033;-64
2024/02/07 13:11:42;;;;;;;8.32;2.80;;;;;;;;;;5037164;28;20483;-63
2024/02/07 13:14:09;;;;;;;6.28;2.72;;;;;;;;;;5043055;28;20040;-63
2024/02/07 13:16:35;;;;;;;6.45;3.05;;;;;;;;;;5042371;28;20031;-64
2024/02/07 13:19:01;;;;;;;7.50;3.03;;;;;;;;;;5039898;28;20479;-63
2024/02/07 13:21:28;;;;;;;11.95;3.25;;;;;;;;;;5040313;28;20061;-63
2024/02/07 13:23:54;;;;;;;8.10;3.63;;;;;;;;;;5042987;28;20025;-64
2024/02/07 13:26:23;;;;;;;6.72;3.17;;;;;;;;;;5042396;28;20033;-64
2024/02/07 13:28:49;;;;;;;5.00;2.92;;;;;;;;;;5044799;28;20119;-65
2024/02/07 13:31:15;;;;;;;3.80;2.55;;;;;;;;;;5025564;28;20120;-64
2024/02/07 13:33:48;;;;;;;7.38;3.40;;;;;;;;;;5022988;28;20222;-65
2024/02/07 13:36:14;;;;;;;12.43;3.72;;;;;;;;;;5043154;28;20064;-64
2024/02/07 13:38:40;;;;;;;4.07;2.63;;;;;;;;;;5021991;28;20858;-66
2024/02/07 13:41:07;;;;;;;5.13;2.40;;;;;;;;;;5042377;28;20476;-63
2024/02/07 13:43:33;;;;;;;6.60;2.45;;;;;;;;;;5039746;28;20032;-73
2024/02/07 13:46:00;;;;;;;8.95;2.85;;;;;;;;;;5036273;28;20028;-66
2024/02/07 13:48:28;;;;;;;4.90;2.72;;;;;;;;;;5036686;28;20067;-67
2024/02/07 13:50:54;;;;;;;5.72;2.30;;;;;;;;;;5046498;28;20047;-68
2024/02/07 13:53:20;;;;;;;5.20;2.33;;;;;;;;;;5043164;28;20033;-71
2024/02/07 13:55:46;;;;;;;5.10;2.42;;;;;;;;;;5043335;28;20484;-69
2024/02/07 13:58:13;;;;;;;4.53;2.50;;;;;;;;;;5039476;28;20549;-69
2024/02/07 14:00:39;;;;;;;5.78;2.22;;;;;;;;;;5038822;28;20403;-70
2024/02/07 14:03:05;;;;;;;3.03;1.83;;;;;;;;;;5036942;28;20029;-66
2024/02/07 14:05:31;;;;;;;3.15;1.95;;;;;;;;;;5037396;28;20028;-68
2024/02/07 14:07:59;;;;;;;2.28;1.70;;;;;;;;;;5020730;28;20062;-69
2024/02/07 14:10:26;;;;;;;6.70;2.35;;;;;;;;;;5035477;28;20090;-70
2024/02/07 14:12:52;;;;;;;5.07;2.20;;;;;;;;;;5041003;28;20396;-69
2024/02/07 14:15:18;;;;;;;7.78;2.20;;;;;;;;;;5027280;28;20029;-71
2024/02/07 14:17:45;;;;;;;8.90;1.98;;;;;;;;;;5024305;28;20021;-67
2024/02/07 14:20:13;;;;;;;5.45;1.83;;;;;;;;;;5022387;28;20043;-63
2024/02/07 14:22:39;;;;;;;3.95;1.83;;;;;;;;;;5023339;28;20492;-63
2024/02/07 14:25:12;;;;;;;5.18;1.50;;;;;;;;;;5040769;28;20025;-63
2024/02/07 14:27:38;;;;;;;6.20;1.80;;;;;;;;;;5042191;28;20048;-63
2024/02/07 14:30:04;;;;;;;2.30;1.42;;;;;;;;;;5036044;28;20554;-66
2024/02/07 14:32:31;;;;;;;3.28;2.15;;;;;;;;;;5045193;28;20032;-65
2024/02/07 14:34:57;;;;;;;5.13;2.17;;;;;;;;;;5042409;28;20573;-65
2024/02/07 14:37:23;;;;;;;5.80;1.90;;;;;;;;;;5019151;28;20025;-65
2024/02/07 14:39:50;;;;;;;6.22;1.85;;;;;;;;;;5037353;28;20025;-63
2024/02/07 14:42:16;;;;;;;3.60;1.70;;;;;;;;;;5023205;28;20013;-63
2024/02/07 14:44:42;;;;;;;2.10;1.90;;;;;;;;;;5037883;28;20103;-64
2024/02/07 14:47:08;;;;;;;2.00;1.35;;;;;;;;;;5038504;28;20040;-64
2024/02/07 14:49:34;;;;;;;6.78;1.92;;;;;;;;;;5024761;28;20024;-64
2024/02/07 14:52:01;;;;;;;3.30;1.52;;;;;;;;;;5041283;28;20118;-67
2024/02/07 14:54:27;;;;;;;7.55;3.15;;;;;;;;;;5033797;28;20399;-64
2024/02/07 14:56:55;;;;;;;4.03;1.60;;;;;;;;;;5026343;28;20033;-64
2024/02/07 14:59:21;;;;;;;1.50;1.40;;;;;;;;;;5035042;28;20412;-64
2024/02/07 15:01:47;;;;;;;4.78;1.55;;;;;;;;;;5040138;28;20025;-63
2024/02/07 15:04:14;;;;;;;7.85;2.53;;;;;;;;;;5022174;28;20132;-63
2024/02/07 15:06:40;;;;;;;2.20;1.90;;;;;;;;;;5026052;28;20033;-66
2024/02/07 15:09:06;;;;;;;6.07;2.38;;;;;;;;;;5037153;28;20021;-67
2024/02/07 15:11:34;;;;;;;4.53;2.35;;;;;;;;;;5036790;28;20033;-66
2024/02/07 15:14:01;;;;;;;13.23;5.63;;;;;;;;;;5036664;28;20021;-64
2024/02/07 15:16:31;;;;;;;14.73;6.35;;;;;;;;;;5040250;28;20041;-65
2024/02/07 15:18:59;;;;;;;10.55;4.70;;;;;;;;;;5040905;28;20349;-62
2024/02/07 15:21:25;;;;;;;5.05;4.53;;;;;;;;;;5018111;28;20150;-62
2024/02/07 15:23:52;;;;;;;5.07;3.45;;;;;;;;;;5021746;28;20025;-63
2024/02/07 15:26:19;;;;;;;2.63;1.65;;;;;;;;;;5039931;28;20029;-62
2024/02/07 15:28:45;;;;;;;4.75;2.53;;;;;;;;;;5041636;28;20049;-64
2024/02/07 15:31:11;;;;;;;16.35;6.63;;;;;;;;;;5023072;28;20039;-63
2024/02/07 15:33:37;;;;;;;3.15;2.30;;;;;;;;;;5042007;28;20416;-63
2024/02/07 15:36:06;;;;;;;5.30;2.22;;;;;;;;;;5042445;28;20033;-63
2024/02/07 15:38:34;;;;;;;5.22;3.85;;;;;;;;;;5022699;28;20037;-64
2024/02/07 15:41:03;;;;;;;3.80;2.28;;;;;;;;;;5024261;28;20114;-64
2024/02/07 15:43:30;;;;;;;4.68;2.17;;;;;;;;;;5041335;28;20025;-65
2024/02/07 15:45:59;;;;;;;2.90;2.00;;;;;;;;;;5037679;28;20051;-66
2024/02/07 15:48:25;;;;;;;3.00;2.40;;;;;;;;;;5038720;28;20041;-66
2024/02/07 15:50:52;;;;;;;6.75;3.00;;;;;;;;;;5037561;28;20060;-63
2024/02/07 15:53:18;;;;;;;3.10;2.00;;;;;;;;;;5039367;28;20029;-63